backup.com alexa rank chart, backup.com alexa rank daily changes

backup.com alexa rank chart, backup.com alexa rank daily changes

backup.com
Actual rank:
379 175

RANK HISTORY

Date Rank Diff
2018/04/24 379 175 +132 676
2018/04/23 246 499 -426 933
2018/04/22 673 432 +188 983
2018/04/21 484 449 +88 768
2018/04/20 395 681 +92 354
2018/04/19 303 327 +88 431
2018/04/17 214 896 -458 879
2018/04/16 673 775 +448 114
2018/04/15 225 661 -188 005
2018/04/14 413 666 -41 076
2018/04/13 454 742 +97 477
2018/04/12 357 265 -202 278
2018/04/11 559 543 +320 011
2018/04/10 239 532 -667 085
2018/04/09 906 617 +638 900
2018/04/08 267 717 -718 183
2018/04/07 985 900 +480 722
2018/04/06 505 178 -273 565
2018/04/04 778 743 +568 242
2018/04/02 210 501 -217 457
2018/04/01 427 958 +209 502
2018/03/31 218 456 -240 288
2018/03/30 458 744 +31 791
2018/03/28 426 953 +63 201
2018/03/27 363 752 +90 244
2018/03/25 273 508 -654 608
2018/03/24 928 116 +679 345
2018/03/23 248 771 -661 102
2018/03/21 909 873 +804 922
2018/03/20 104 951 -111 634
2018/03/19 216 585 -144 377
2018/03/18 360 962 -78 295
2018/03/17 439 257 -151 145
2018/03/16 590 402 +280 269
2018/03/15 310 133 +186 284
2018/03/14 123 849 -311 776
2018/03/13 435 625 +7 638
2018/03/09 427 987 -16 798
2018/03/08 444 785 +253 249
2018/03/06 191 536 -185 107
2018/03/05 376 643 +14 481
2018/03/03 362 162 -141 092
2018/03/02 503 254 +170 291
2018/03/01 332 963 -475 937
2018/02/28 808 900 +492 932
2018/02/27 315 968 -78 528
2018/02/26 394 496 +89 995
2018/02/25 304 501 -121 170
2018/02/24 425 671 -40 905
2018/02/23 466 576

WIDGET FOR YOUR SITE

DOMAINS WITH THE NEAREST RANK

Domain Rank
winter-trails.site 379 170
elecfreaks.com 379 171
tripsta.ca 379 172
aeroflot.com 379 173
zaringold.com 379 174
backup.com 379 175
kitaiki.ru 379 176
dedewnet.com 379 177
arhiv-porno.info 379 178
yartr.ru 379 179
mvs.gov.ua 379 180

DOMAINS WITH THE NEAREST RANK BY TLD .com

Domain Rank
elblogalternativo.com 379 168
temporizadoronline.com 379 169
elecfreaks.com 379 171
aeroflot.com 379 173
zaringold.com 379 174
backup.com 379 175
dedewnet.com 379 177
ameengage.com 379 183
baybloorradio.com 379 184
bramptonguardian.com 379 186
desjardinsassurancesgenerales.com 379 189